Time;durP1;ratioP1;P1;durP2;ratioP2;P2;SDS_P1;SDS_P2;PMS_P1;PMS_P2;Temp;Humidity;BMP_temperature;BMP_pressure;BME280_temperature;BME280_humidity;BME280_pressure;Samples;Min_cycle;Max_cycle;Signal;HPM_P1;HPM_P2
2022/05/30 00:00:19;;;;;;;4.68;1.50;;;;;;;12.63;61.01;100542.88;5071401;28;20513;-84
2022/05/30 00:02:44;;;;;;;3.05;1.70;;;;;;;12.76;61.40;100549.91;5071509;28;20124;-83
2022/05/30 00:05:11;;;;;;;2.63;1.88;;;;;;;12.80;60.98;100552.19;5071777;28;20481;-84
2022/05/30 00:07:37;;;;;;;3.05;1.67;;;;;;;12.92;61.26;100546.94;5070333;28;20395;-84
2022/05/30 00:10:04;;;;;;;4.25;1.95;;;;;;;12.94;60.75;100550.31;5071434;28;20148;-84
2022/05/30 00:12:30;;;;;;;4.05;1.52;;;;;;;13.05;61.01;100550.31;5070232;28;20059;-84
2022/05/30 00:14:55;;;;;;;2.83;1.65;;;;;;;13.11;60.54;100541.94;5071292;28;20448;-84
2022/05/30 00:17:20;;;;;;;2.17;1.55;;;;;;;13.18;60.87;100537.88;5071607;28;20028;-84
2022/05/30 00:19:46;;;;;;;2.10;1.60;;;;;;;13.29;61.16;100535.31;5071422;28;20095;-84
2022/05/30 00:22:14;;;;;;;3.45;1.83;;;;;;;13.33;60.68;100533.28;5071498;28;20445;-83
2022/05/30 00:24:43;;;;;;;2.58;1.50;;;;;;;13.37;61.23;100525.94;5071660;28;20025;-84
2022/05/30 00:27:10;;;;;;;2.17;1.30;;;;;;;13.42;61.29;100519.34;5071370;28;20104;-84
2022/05/30 00:29:35;;;;;;;2.42;1.40;;;;;;;13.42;61.03;100518.50;5071416;28;20028;-84
2022/05/30 00:32:01;;;;;;;2.50;1.30;;;;;;;13.47;60.18;100530.38;5071452;28;20580;-84
2022/05/30 00:34:26;;;;;;;3.60;1.38;;;;;;;13.44;58.74;100532.41;5071136;28;20033;-83
2022/05/30 00:36:53;;;;;;;3.17;2.75;;;;;;;13.36;59.09;100529.53;5071393;28;20085;-84
2022/05/30 00:39:18;;;;;;;2.50;1.83;;;;;;;13.31;59.35;100519.38;5071268;28;20031;-84
2022/05/30 00:41:44;;;;;;;2.13;1.70;;;;;;;13.37;59.04;100518.88;5071135;28;20024;-84
2022/05/30 00:44:09;;;;;;;4.25;2.13;;;;;;;13.29;59.77;100518.63;5071317;28;20029;-84
2022/05/30 00:46:35;;;;;;;2.53;1.92;;;;;;;13.31;60.23;100514.09;5071194;28;20025;-83
2022/05/30 00:49:06;;;;;;;4.35;2.00;;;;;;;13.20;60.40;100514.03;5069824;28;20029;-84
2022/05/30 00:51:49;;;;;;;2.15;1.90;;;;;;;13.21;60.24;100513.06;5071020;28;20086;-84
2022/05/30 00:54:20;;;;;;;2.38;1.65;;;;;;;13.22;60.55;100512.13;5069940;28;20033;-84
2022/05/30 00:56:50;;;;;;;2.42;2.00;;;;;;;13.21;60.51;100508.66;5071318;28;20020;-84
2022/05/30 00:59:16;;;;;;;4.43;1.80;;;;;;;13.19;60.96;100504.44;5071050;28;20063;-84
2022/05/30 01:01:41;;;;;;;3.00;2.13;;;;;;;13.24;60.45;100504.94;5071068;28;20048;-83
2022/05/30 01:06:55;;;;;;;1.98;1.63;;;;;;;13.18;61.18;100500.13;5071164;28;20031;-83
2022/05/30 01:09:25;;;;;;;4.30;1.90;;;;;;;13.26;60.87;100505.66;5072045;28;20028;-84
2022/05/30 01:11:59;;;;;;;3.58;1.85;;;;;;;13.22;60.68;100498.94;5074499;28;20291;-84
2022/05/30 01:14:28;;;;;;;3.67;2.08;;;;;;;13.19;60.80;100497.41;5074489;28;20059;-84
2022/05/30 01:16:55;;;;;;;3.08;1.80;;;;;;;13.24;60.39;100495.22;5073102;28;20025;-83
2022/05/30 01:19:30;;;;;;;2.67;1.60;;;;;;;13.25;61.51;100494.28;5074439;28;20067;-84
2022/05/30 01:22:28;;;;;;;3.15;1.60;;;;;;;13.33;60.65;100485.81;5074352;28;20086;-84
2022/05/30 01:25:14;;;;;;;4.10;1.58;;;;;;;13.33;61.10;100488.44;5074245;28;20116;-84
2022/05/30 01:28:03;;;;;;;2.10;1.88;;;;;;;13.35;61.41;100483.03;5074212;28;20539;-84
2022/05/30 01:30:28;;;;;;;5.25;1.50;;;;;;;13.33;61.26;100477.03;5074250;28;20505;-84
2022/05/30 01:32:58;;;;;;;2.17;1.65;;;;;;;13.45;60.71;100469.00;5074123;28;20017;-84
2022/05/30 01:35:25;;;;;;;1.48;1.38;;;;;;;13.39;60.52;100474.78;5073963;28;20127;-84
2022/05/30 01:37:50;;;;;;;3.60;1.70;;;;;;;13.42;60.83;100471.03;5074126;28;20043;-84
2022/05/30 01:40:16;;;;;;;1.90;1.35;;;;;;;13.45;60.54;100468.19;5074058;28;20012;-84
2022/05/30 01:42:41;;;;;;;3.03;1.73;;;;;;;13.29;60.64;100472.00;5073885;28;20491;-84
2022/05/30 01:45:08;;;;;;;2.08;1.70;;;;;;;13.43;60.63;100470.94;5073724;28;20017;-84
2022/05/30 01:47:34;;;;;;;3.13;1.70;;;;;;;13.45;60.44;100473.44;5072591;28;20024;-84
2022/05/30 01:49:59;;;;;;;2.17;1.33;;;;;;;13.47;60.26;100464.44;5073910;28;20383;-84
2022/05/30 01:52:24;;;;;;;4.45;1.90;;;;;;;13.41;60.81;100470.22;5073479;28;20020;-84
2022/05/30 01:54:50;;;;;;;3.58;1.98;;;;;;;13.32;61.50;100460.38;5073699;28;20509;-84
2022/05/30 01:57:15;;;;;;;3.33;1.75;;;;;;;13.33;61.47;100464.72;5073788;28;20466;-84
2022/05/30 01:59:40;;;;;;;3.28;1.80;;;;;;;13.43;61.10;100460.38;5072457;28;20518;-84
2022/05/30 02:02:08;;;;;;;3.35;1.38;;;;;;;13.46;61.29;100469.84;5073373;28;20529;-84
2022/05/30 02:04:33;;;;;;;5.75;1.45;;;;;;;13.42;61.31;100458.69;5073494;28;20021;-84
2022/05/30 02:06:59;;;;;;;1.63;1.23;;;;;;;13.46;60.47;100459.28;5073555;28;20082;-84
2022/05/30 02:09:24;;;;;;;2.78;1.40;;;;;;;13.49;60.30;100459.88;5073334;28;20020;-83
2022/05/30 02:11:49;;;;;;;3.63;1.25;;;;;;;13.54;60.52;100461.31;5073191;28;20024;-84
2022/05/30 02:14:15;;;;;;;6.22;2.40;;;;;;;13.45;60.55;100463.72;5073373;28;20082;-83
2022/05/30 02:19:24;;;;;;;2.97;1.60;;;;;;;13.40;60.86;100465.06;5073275;28;20044;-84
2022/05/30 02:21:50;;;;;;;1.98;1.35;;;;;;;13.42;60.78;100455.22;5072734;28;20021;-83
2022/05/30 02:24:16;;;;;;;3.13;1.27;;;;;;;13.39;61.47;100456.31;5073341;28;20367;-84
2022/05/30 02:26:41;;;;;;;5.68;1.17;;;;;;;13.47;61.44;100450.44;5073079;28;20029;-84
2022/05/30 02:29:06;;;;;;;3.83;1.73;;;;;;;13.49;61.39;100451.97;5071743;28;20505;-84
2022/05/30 02:31:32;;;;;;;3.17;1.40;;;;;;;13.48;61.51;100444.19;5072773;28;20016;-84
2022/05/30 02:36:42;;;;;;;2.30;1.00;;;;;;;13.49;61.55;100446.69;5072926;28;20082;-84
2022/05/30 02:39:12;;;;;;;1.58;1.05;;;;;;;13.56;61.98;100443.56;5072861;28;20017;-84
2022/05/30 02:41:38;;;;;;;4.47;1.27;;;;;;;13.52;61.20;100440.34;5072830;28;20017;-83
2022/05/30 02:44:04;;;;;;;3.60;1.23;;;;;;;13.57;61.43;100439.97;5072724;28;20024;-83
2022/05/30 02:46:30;;;;;;;2.05;1.10;;;;;;;13.48;61.59;100438.91;5071418;28;20064;-84
2022/05/30 02:48:55;;;;;;;3.33;0.93;;;;;;;13.51;60.76;100435.16;5072607;28;20020;-84
2022/05/30 02:51:21;;;;;;;4.15;1.40;;;;;;;13.40;61.91;100431.59;5071356;28;20028;-83
2022/05/30 02:53:46;;;;;;;3.90;1.40;;;;;;;13.45;61.30;100428.63;5072624;28;20032;-83
2022/05/30 02:56:12;;;;;;;2.03;1.30;;;;;;;13.40;61.70;100433.41;5071383;28;20025;-84
2022/05/30 02:58:38;;;;;;;2.63;0.90;;;;;;;13.40;62.20;100439.50;5071050;28;20540;-83
2022/05/30 03:01:04;;;;;;;1.45;1.10;;;;;;;13.40;61.83;100423.69;5071378;28;20024;-84
2022/05/30 03:03:30;;;;;;;2.22;1.10;;;;;;;13.43;61.40;100420.81;5072302;28;20156;-84
2022/05/30 03:05:55;;;;;;;5.13;1.40;;;;;;;13.36;61.52;100416.97;5071333;28;20153;-83
2022/05/30 03:08:21;;;;;;;2.25;1.00;;;;;;;13.27;62.16;100421.16;5072509;28;20043;-84
2022/05/30 03:10:47;;;;;;;1.95;1.05;;;;;;;13.41;61.91;100417.47;5072442;28;20029;-84
2022/05/30 03:13:12;;;;;;;3.47;1.10;;;;;;;13.36;61.15;100416.97;5070767;28;20117;-84
2022/05/30 03:15:38;;;;;;;2.33;0.98;;;;;;;13.33;61.55;100413.75;5072240;28;20039;-84
2022/05/30 03:18:03;;;;;;;2.75;0.80;;;;;;;13.37;61.89;100413.41;5070743;28;20036;-83
2022/05/30 03:20:29;;;;;;;2.78;1.27;;;;;;;13.38;61.45;100404.50;5072234;28;20162;-83
2022/05/30 03:22:56;;;;;;;2.05;1.00;;;;;;;13.39;61.69;100411.47;5071910;28;20389;-84
2022/05/30 03:25:22;;;;;;;1.25;0.73;;;;;;;13.32;61.49;100399.72;5072290;28;20540;-84
2022/05/30 03:27:47;;;;;;;2.63;0.90;;;;;;;13.39;61.25;100406.19;5071950;28;20025;-84
2022/05/30 03:30:14;;;;;;;3.25;1.08;;;;;;;13.32;61.12;100399.72;5072005;28;20036;-84
2022/05/30 03:32:41;;;;;;;3.05;1.20;;;;;;;13.24;62.23;100397.66;5071049;28;20586;-83
2022/05/30 03:35:07;;;;;;;4.13;1.52;;;;;;;13.24;62.50;100395.03;5071883;28;20031;-84
2022/05/30 03:37:36;;;;;;;1.73;1.10;;;;;;;13.23;62.53;100395.13;5071959;28;20054;-83
2022/05/30 03:40:01;;;;;;;1.42;1.10;;;;;;;13.16;62.73;100397.44;5070702;28;20055;-84
2022/05/30 03:42:27;;;;;;;2.88;1.70;;;;;;;13.13;62.49;100399.47;5071778;28;20463;-84
2022/05/30 03:44:52;;;;;;;2.60;0.93;;;;;;;13.05;62.63;100389.53;5072489;28;20058;-83
2022/05/30 03:47:18;;;;;;;2.25;1.15;;;;;;;13.16;62.37;100388.69;5071747;28;20104;-83
2022/05/30 03:49:43;;;;;;;3.75;1.30;;;;;;;13.09;62.42;100383.06;5070640;28;20029;-84
2022/05/30 03:52:09;;;;;;;4.18;1.23;;;;;;;13.04;62.42;100388.69;5070475;28;20486;-83
2022/05/30 03:54:34;;;;;;;1.85;0.88;;;;;;;12.96;62.00;100383.19;5071553;28;20105;-83
2022/05/30 03:57:00;;;;;;;2.33;1.08;;;;;;;12.88;62.98;100382.97;5071796;28;20036;-83
2022/05/30 03:59:25;;;;;;;3.00;1.05;;;;;;;12.81;63.21;100384.38;5071767;28;20024;-83
2022/05/30 04:01:50;;;;;;;2.78;0.95;;;;;;;12.72;62.92;100377.19;5071659;28;20025;-83
2022/05/30 04:04:16;;;;;;;4.28;1.50;;;;;;;12.63;62.85;100387.47;5071943;28;20071;-83
2022/05/30 04:06:41;;;;;;;1.73;1.00;;;;;;;12.33;63.11;100381.94;5071813;28;20024;-83
2022/05/30 04:09:07;;;;;;;2.10;1.00;;;;;;;12.44;62.56;100379.31;5070195;28;20029;-83
2022/05/30 04:11:33;;;;;;;2.45;1.20;;;;;;;12.40;62.36;100367.31;5070250;28;20032;-83
2022/05/30 04:13:58;;;;;;;2.83;1.30;;;;;;;12.34;62.91;100375.69;5071563;28;20406;-83
2022/05/30 04:16:24;;;;;;;2.28;1.02;;;;;;;12.27;63.16;100376.16;5071709;28;20028;-83
2022/05/30 04:18:49;;;;;;;2.95;1.38;;;;;;;12.09;62.97;100377.56;5071381;28;20490;-83
2022/05/30 04:21:15;;;;;;;4.10;1.10;;;;;;;11.76;62.58;100370.34;5071388;28;20467;-83
2022/05/30 04:23:42;;;;;;;4.43;1.30;;;;;;;11.56;64.04;100372.63;5071544;28;20108;-83
2022/05/30 04:26:09;;;;;;;2.28;1.05;;;;;;;11.59;64.14;100376.81;5070174;28;20446;-83
2022/05/30 04:28:35;;;;;;;3.38;1.58;;;;;;;11.95;63.54;100370.69;5071400;28;20035;-84
2022/05/30 04:31:11;;;;;;;3.90;0.88;;;;;;;12.07;63.15;100374.19;5071080;28;20488;-83
2022/05/30 04:33:37;;;;;;;3.35;1.35;;;;;;;12.16;62.96;100370.03;5071368;28;20028;-83
2022/05/30 04:36:06;;;;;;;4.75;1.30;;;;;;;12.23;62.69;100371.25;5071289;28;20031;-83
2022/05/30 04:38:31;;;;;;;3.88;1.27;;;;;;;12.29;62.83;100369.00;5071160;28;20020;-83
2022/05/30 04:40:57;;;;;;;3.63;1.50;;;;;;;12.38;62.61;100369.25;5070079;28;20035;-84
2022/05/30 04:43:23;;;;;;;3.30;1.58;;;;;;;12.42;62.63;100373.31;5072220;28;20036;-83
2022/05/30 04:46:05;;;;;;;2.53;1.33;;;;;;;12.35;62.64;100361.59;5075077;28;20025;-83
2022/05/30 04:48:31;;;;;;;7.20;1.45;;;;;;;12.39;62.27;100358.59;5075100;28;20037;-83
2022/05/30 04:50:56;;;;;;;3.03;1.60;;;;;;;12.32;62.73;100365.28;5075144;28;20035;-83
2022/05/30 04:53:21;;;;;;;6.10;1.73;;;;;;;12.52;62.50;100353.25;5073386;28;20107;-83
2022/05/30 04:55:47;;;;;;;4.78;1.50;;;;;;;12.53;62.62;100354.06;5073686;28;20159;-83
2022/05/30 04:58:12;;;;;;;3.25;1.50;;;;;;;12.71;61.94;100350.00;5074632;28;20028;-83
2022/05/30 05:00:37;;;;;;;3.05;1.60;;;;;;;12.66;61.98;100355.63;5074785;28;20040;-83
2022/05/30 05:03:03;;;;;;;3.08;1.35;;;;;;;12.66;62.29;100355.63;5074800;28;20470;-83
2022/05/30 05:05:28;;;;;;;3.35;1.77;;;;;;;12.73;62.10;100353.34;5074801;28;20032;-83
2022/05/30 05:08:04;;;;;;;1.63;1.20;;;;;;;12.89;62.22;100367.03;5073269;28;20017;-83
2022/05/30 05:11:17;;;;;;;1.67;1.10;;;;;;;12.84;62.72;100356.00;5073103;28;20039;-83
2022/05/30 05:13:43;;;;;;;3.22;1.13;;;;;;;12.96;61.65;100354.19;5051902;28;20029;-83
2022/05/30 05:16:08;;;;;;;5.75;1.30;;;;;;;12.99;61.83;100351.31;5035562;28;20162;-83
2022/05/30 05:18:35;;;;;;;5.82;1.60;;;;;;;13.02;61.67;100355.53;5051178;28;20039;-83
2022/05/30 05:21:00;;;;;;;3.90;1.48;;;;;;;12.99;61.41;100359.22;5074593;28;20080;-83
2022/05/30 05:23:25;;;;;;;4.07;2.80;;;;;;;12.86;61.33;100353.25;5074514;28;20474;-83
2022/05/30 05:25:51;;;;;;;2.47;1.30;;;;;;;12.90;61.27;100352.88;5074278;28;20467;-83
2022/05/30 05:28:16;;;;;;;4.93;1.67;;;;;;;12.96;61.93;100356.84;5074359;28;20031;-83
2022/05/30 05:30:43;;;;;;;3.85;1.67;;;;;;;13.12;62.01;100356.47;5073120;28;20060;-83
2022/05/30 05:33:09;;;;;;;3.65;2.00;;;;;;;13.36;61.19;100351.06;5074085;28;20024;-83
2022/05/30 05:35:39;;;;;;;2.70;1.40;;;;;;;13.52;61.28;100345.38;5074095;28;20028;-83
2022/05/30 05:38:05;;;;;;;4.97;1.77;;;;;;;13.79;60.66;100347.56;5073870;28;20036;-83
2022/05/30 05:40:30;;;;;;;5.40;1.90;;;;;;;13.98;60.55;100341.59;5074268;28;20425;-83
2022/05/30 05:42:55;;;;;;;4.40;1.77;;;;;;;14.24;59.59;100343.88;5072735;28;20078;-83
2022/05/30 05:45:21;;;;;;;2.33;1.20;;;;;;;14.37;59.95;100344.47;5073892;28;20070;-84
2022/05/30 05:47:47;;;;;;;3.00;1.30;;;;;;;14.66;59.35;100339.38;5073876;28;20074;-83
2022/05/30 05:50:12;;;;;;;5.75;1.30;;;;;;;14.91;58.34;100337.25;5072455;28;20123;-83
2022/05/30 05:52:38;;;;;;;2.70;1.15;;;;;;;15.08;58.02;100343.69;5073655;28;20114;-83
2022/05/30 05:55:04;;;;;;;2.47;1.23;;;;;;;15.20;58.03;100339.13;5073095;28;20037;-83
2022/05/30 05:57:29;;;;;;;4.80;1.60;;;;;;;15.27;56.94;100337.63;5073852;28;20521;-84
2022/05/30 05:59:55;;;;;;;3.25;1.15;;;;;;;15.49;56.59;100344.50;5073611;28;20033;-84
2022/05/30 06:02:22;;;;;;;3.70;1.40;;;;;;;15.68;55.53;100343.69;5073524;28;20444;-83
2022/05/30 06:04:47;;;;;;;8.35;1.42;;;;;;;15.80;55.41;100345.25;5073427;28;20028;-84
2022/05/30 06:07:13;;;;;;;6.72;1.88;;;;;;;15.98;54.71;100348.00;5073527;28;20036;-84
2022/05/30 06:09:39;;;;;;;4.43;1.60;;;;;;;16.11;53.56;100350.34;5073549;28;20498;-84
2022/05/30 06:12:07;;;;;;;3.47;1.50;;;;;;;16.53;54.24;100347.34;5072113;28;20047;-84
2022/05/30 06:14:33;;;;;;;4.93;1.50;;;;;;;16.78;51.24;100347.69;5073369;28;20028;-84
2022/05/30 06:16:59;;;;;;;2.95;1.30;;;;;;;16.76;51.50;100347.00;5073525;28;20025;-84
2022/05/30 06:19:24;;;;;;;3.10;1.38;;;;;;;17.01;51.54;100350.81;5073394;28;20035;-84
2022/05/30 06:21:49;;;;;;;2.72;1.30;;;;;;;17.03;51.25;100355.00;5071859;28;20024;-84
2022/05/30 06:24:15;;;;;;;3.45;1.52;;;;;;;17.21;51.08;100349.72;5073302;28;20020;-84
2022/05/30 06:26:44;;;;;;;1.92;1.25;;;;;;;17.71;50.09;100347.56;5071876;28;20020;-84
2022/05/30 06:29:11;;;;;;;2.25;1.25;;;;;;;19.29;46.30;100344.75;5073107;28;20021;-84
2022/05/30 06:31:36;;;;;;;3.72;1.38;;;;;;;19.53;45.28;100351.09;5073027;28;20036;-84
2022/05/30 06:34:02;;;;;;;2.58;1.42;;;;;;;19.21;44.98;100342.06;5072995;28;20048;-84
2022/05/30 06:36:28;;;;;;;5.38;1.60;;;;;;;19.57;44.02;100347.97;5071697;28;20025;-84
2022/05/30 06:38:55;;;;;;;6.13;1.25;;;;;;;19.70;44.56;100336.00;5071527;28;20442;-83
2022/05/30 06:41:23;;;;;;;3.42;1.60;;;;;;;20.23;43.36;100334.69;5072866;28;20095;-84
2022/05/30 06:43:52;;;;;;;3.78;1.33;;;;;;;20.99;41.08;100333.31;5072951;28;20143;-84
2022/05/30 06:46:18;;;;;;;4.30;1.60;;;;;;;22.29;38.45;100313.03;5072757;28;20084;-84
2022/05/30 06:48:45;;;;;;;2.35;1.35;;;;;;;24.10;35.30;100304.19;5072663;28;20540;-84
2022/05/30 06:51:13;;;;;;;4.45;1.50;;;;;;;24.42;34.76;100291.16;5072721;28;20016;-84
2022/05/30 06:53:40;;;;;;;4.05;1.23;;;;;;;26.71;31.61;100297.50;5072560;28;20032;-84
2022/05/30 06:56:19;;;;;;;2.80;1.23;;;;;;;27.71;29.51;100313.16;5072690;28;20031;-84
2022/05/30 06:58:46;;;;;;;3.17;1.10;;;;;;;29.62;28.52;100320.34;5072477;28;20028;-84
2022/05/30 07:01:11;;;;;;;3.55;1.35;;;;;;;29.46;27.60;100319.13;5072293;28;20163;-84
2022/05/30 07:03:38;;;;;;;5.45;1.65;;;;;;;29.65;27.43;100263.91;5071366;28;20028;-84
2022/05/30 07:06:10;;;;;;;3.30;1.35;;;;;;;29.83;27.18;100281.13;5072282;28;20039;-84
2022/05/30 07:08:36;;;;;;;2.10;1.40;;;;;;;29.12;27.50;100305.28;5071928;28;20025;-85
2022/05/30 07:11:02;;;;;;;2.97;1.50;;;;;;;29.86;27.11;100307.72;5072063;28;20032;-84
2022/05/30 07:13:28;;;;;;;2.15;1.10;;;;;;;30.19;26.63;100285.47;5072581;28;20031;-85
2022/05/30 07:15:55;;;;;;;3.17;1.38;;;;;;;30.92;26.16;100228.19;5072239;28;20028;-85
2022/05/30 07:18:21;;;;;;;3.05;1.38;;;;;;;32.56;24.48;100293.22;5071066;28;20094;-85
2022/05/30 07:20:47;;;;;;;4.47;1.20;;;;;;;32.19;23.81;100294.63;5070834;28;20044;-85
2022/05/30 07:23:13;;;;;;;2.53;1.20;;;;;;;32.01;23.98;100268.56;5072048;28;20025;-85
2022/05/30 07:25:39;;;;;;;4.10;1.30;;;;;;;33.25;23.46;100281.75;5072339;28;20028;-85
2022/05/30 07:28:05;;;;;;;7.13;1.70;;;;;;;34.27;21.88;100223.69;5072067;28;20028;-85
2022/05/30 07:30:34;;;;;;;4.47;1.15;;;;;;;35.27;21.01;100162.50;5072116;28;20058;-85
2022/05/30 07:32:59;;;;;;;4.93;1.08;;;;;;;36.37;20.07;100231.09;5071855;28;20039;-85
2022/05/30 07:35:24;;;;;;;2.50;1.20;;;;;;;34.29;21.88;100276.81;5071951;28;20036;-85
2022/05/30 07:37:50;;;;;;;4.25;1.95;;;;;;;36.05;20.74;100262.34;5071672;28;20286;-85
2022/05/30 07:40:16;;;;;;;6.60;2.45;;;;;;;35.27;21.53;100266.22;5070602;28;20107;-85
2022/05/30 07:42:41;;;;;;;4.78;1.42;;;;;;;35.83;20.68;100203.41;5071832;28;20438;-85
2022/05/30 07:45:10;;;;;;;1.20;0.90;;;;;;;35.93;20.47;100214.28;5071983;28;20025;-85
2022/05/30 07:47:36;;;;;;;2.72;1.13;;;;;;;35.08;21.42;100217.63;5071864;28;20478;-85
2022/05/30 07:50:04;;;;;;;4.22;1.38;;;;;;;36.09;20.68;100271.63;5070494;28;20127;-85
2022/05/30 07:52:30;;;;;;;2.65;1.00;;;;;;;36.59;20.08;100278.00;5070478;28;20154;-85
2022/05/30 07:54:56;;;;;;;3.03;1.30;;;;;;;36.81;20.46;100250.31;5071848;28;20115;-85
2022/05/30 07:57:50;;;;;;;2.38;1.00;;;;;;;37.22;19.58;100221.84;5071569;28;20059;-85
2022/05/30 08:00:08;;;;;;;5.75;1.30;;;;;;;37.34;19.70;100246.91;5071711;28;20094;-85
2022/05/30 08:02:34;;;;;;;2.05;1.13;;;;;;;36.08;20.25;100238.03;5071456;28;20028;-86
2022/05/30 08:04:59;;;;;;;3.15;1.73;;;;;;;35.62;21.03;100270.03;5071784;28;20063;-85
2022/05/30 08:07:25;;;;;;;3.25;1.02;;;;;;;36.38;20.40;100262.78;5072217;28;20025;-85
2022/05/30 08:09:50;;;;;;;2.70;1.40;;;;;;;36.42;19.62;100236.56;5071634;28;20020;-85
2022/05/30 08:12:16;;;;;;;2.15;0.90;;;;;;;37.80;18.97;100240.22;5071400;28;20493;-85
2022/05/30 08:14:41;;;;;;;3.10;1.20;;;;;;;36.68;19.78;100250.94;5071667;28;20701;-86
2022/05/30 08:17:07;;;;;;;5.15;1.38;;;;;;;36.98;19.75;100244.44;5071769;28;20423;-85
2022/05/30 08:19:33;;;;;;;2.22;1.42;;;;;;;37.63;19.62;100265.31;5073487;28;20436;-85
2022/05/30 08:22:07;;;;;;;3.17;1.40;;;;;;;29.75;27.03;100265.25;5075869;28;20020;-85
2022/05/30 08:24:41;;;;;;;2.45;0.95;;;;;;;30.72;25.49;100259.22;5075233;28;20029;-85
2022/05/30 08:27:06;;;;;;;1.85;1.08;;;;;;;29.93;26.85;100269.72;5075465;28;20141;-85
2022/05/30 08:29:32;;;;;;;3.53;1.40;;;;;;;31.01;26.14;100256.56;5074130;28;20054;-85
2022/05/30 08:31:58;;;;;;;2.58;1.30;;;;;;;29.48;27.03;100262.94;5073961;28;20016;-85
2022/05/30 08:34:23;;;;;;;3.47;1.35;;;;;;;27.83;28.83;100270.09;5073804;28;20024;-85
2022/05/30 08:36:49;;;;;;;3.88;1.40;;;;;;;26.49;31.75;100268.13;5075151;28;20115;-85
2022/05/30 08:42:00;;;;;;;4.50;1.52;;;;;;;25.45;32.36;100266.97;5075048;28;20162;-85
2022/05/30 08:44:29;;;;;;;2.13;0.85;;;;;;;23.88;34.51;100270.41;5075291;28;20032;-85
2022/05/30 08:47:15;;;;;;;4.15;1.48;;;;;;;23.30;36.37;100271.31;5073664;28;20025;-85
2022/05/30 08:49:46;;;;;;;2.65;1.10;;;;;;;22.77;37.37;100270.69;5075092;28;20162;-85
2022/05/30 08:52:12;;;;;;;6.63;1.35;;;;;;;22.29;37.94;100265.72;5075011;28;20039;-84
2022/05/30 08:55:22;;;;;;;2.67;1.10;;;;;;;22.05;38.12;100268.63;5074847;28;20032;-84
2022/05/30 08:58:05;;;;;;;2.78;1.15;;;;;;;21.94;39.08;100256.56;5072174;28;20029;-85
2022/05/30 09:00:34;;;;;;;2.30;1.15;;;;;;;20.52;40.96;100270.13;5074703;28;20090;-84
2022/05/30 09:03:04;;;;;;;1.88;0.95;;;;;;;20.56;42.17;100262.59;5074679;28;20374;-84
2022/05/30 09:05:35;;;;;;;3.65;0.90;;;;;;;20.51;40.86;100260.44;5073281;28;20040;-84
2022/05/30 09:08:06;;;;;;;4.10;1.05;;;;;;;20.99;40.93;100255.06;5075155;28;20026;-84
2022/05/30 09:10:50;;;;;;;3.08;0.95;;;;;;;21.07;40.86;100256.84;5074626;28;20047;-84
2022/05/30 09:13:20;;;;;;;2.72;1.20;;;;;;;20.71;41.66;100262.72;5074346;28;20170;-84
2022/05/30 09:16:24;;;;;;;2.38;1.17;;;;;;;20.83;41.48;100261.31;5074339;28;20038;-84
2022/05/30 09:18:53;;;;;;;4.25;1.25;;;;;;;20.99;41.78;100253.25;5073112;28;20041;-84
2022/05/30 09:21:21;;;;;;;3.83;1.88;;;;;;;21.20;40.53;100254.44;5074523;28;20071;-84
2022/05/30 09:23:47;;;;;;;2.80;1.35;;;;;;;21.07;40.64;100247.03;5074271;28;20024;-84
2022/05/30 09:26:16;;;;;;;2.67;1.45;;;;;;;20.19;42.39;100246.22;5074601;28;20028;-84
2022/05/30 09:28:43;;;;;;;3.10;1.40;;;;;;;19.70;44.07;100245.44;5074454;28;20029;-84
2022/05/30 09:31:21;;;;;;;2.90;1.30;;;;;;;20.34;43.07;100249.00;5073239;28;20028;-85
2022/05/30 09:33:49;;;;;;;3.40;1.75;;;;;;;20.45;43.04;100250.47;5074119;28;20055;-84
2022/05/30 09:36:29;;;;;;;3.63;1.35;;;;;;;20.08;43.41;100253.72;5074206;28;20029;-84
2022/05/30 09:38:59;;;;;;;3.30;1.40;;;;;;;20.40;42.64;100243.00;5074197;28;20047;-84
2022/05/30 09:41:38;;;;;;;2.22;1.55;;;;;;;19.88;42.80;100237.28;5072754;28;20074;-84
2022/05/30 09:44:17;;;;;;;2.45;1.40;;;;;;;19.92;42.82;100234.09;5072656;28;20024;-84
2022/05/30 09:46:52;;;;;;;3.00;1.30;;;;;;;20.37;42.60;100235.31;5074245;28;20181;-85
2022/05/30 09:49:27;;;;;;;3.63;1.50;;;;;;;20.49;42.35;100232.28;5074010;28;20494;-84
2022/05/30 09:52:03;;;;;;;6.03;1.40;;;;;;;21.19;40.83;100232.25;5073794;28;20055;-84
2022/05/30 09:54:28;;;;;;;4.68;1.88;;;;;;;21.45;40.98;100235.63;5073641;28;20077;-84
2022/05/30 09:56:57;;;;;;;3.95;1.88;;;;;;;22.13;40.06;100231.94;5073656;28;20115;-84
2022/05/30 09:59:42;;;;;;;3.22;1.75;;;;;;;22.55;39.23;100227.81;5073823;28;20047;-85
2022/05/30 10:02:24;;;;;;;3.22;1.42;;;;;;;24.14;36.10;100238.38;5073434;28;20116;-85
2022/05/30 10:05:01;;;;;;;5.65;1.52;;;;;;;24.46;35.60;100230.69;5073600;28;20493;-85
2022/05/30 10:07:27;;;;;;;2.88;1.50;;;;;;;24.37;35.21;100229.22;5073680;28;20037;-85
2022/05/30 10:10:02;;;;;;;4.82;1.42;;;;;;;23.37;37.81;100225.81;5073741;28;20431;-85
2022/05/30 10:12:40;;;;;;;4.47;1.38;;;;;;;23.50;36.40;100225.94;5073347;28;20043;-85
2022/05/30 10:15:25;;;;;;;6.28;1.95;;;;;;;22.85;37.59;100227.75;5073296;28;20033;-85
2022/05/30 10:17:52;;;;;;;2.60;1.20;;;;;;;22.86;37.05;100226.72;5073614;28;20020;-84
2022/05/30 10:20:41;;;;;;;6.15;1.90;;;;;;;22.21;39.03;100224.84;5073543;28;20026;-85
2022/05/30 10:29:12;;;;;;;2.85;1.20;;;;;;;21.78;38.84;100217.44;5073115;28;20078;-85
2022/05/30 10:31:54;;;;;;;2.92;1.45;;;;;;;22.07;39.09;100216.63;5073051;28;20020;-84
2022/05/30 10:34:51;;;;;;;5.55;1.60;;;;;;;22.16;38.36;100212.84;5073198;28;20410;-84
2022/05/30 10:37:38;;;;;;;4.20;1.52;;;;;;;23.35;36.85;100217.97;5072998;28;20071;-85
2022/05/30 10:40:16;;;;;;;4.78;1.40;;;;;;;23.05;37.22;100209.25;5071647;28;20031;-85
2022/05/30 10:42:42;;;;;;;3.50;1.52;;;;;;;22.53;37.06;100219.16;5072533;28;20029;-85
2022/05/30 10:45:19;;;;;;;3.75;1.52;;;;;;;21.48;40.63;100208.53;5072851;28;20382;-84
2022/05/30 10:47:48;;;;;;;4.22;1.33;;;;;;;22.78;37.97;100221.47;5072622;28;20020;-84
2022/05/30 10:50:42;;;;;;;5.40;1.50;;;;;;;22.48;37.79;100212.69;5072766;28;20040;-84
2022/05/30 10:53:18;;;;;;;2.97;1.55;;;;;;;22.00;39.00;100207.69;5072576;28;20025;-85
2022/05/30 10:55:48;;;;;;;4.28;1.90;;;;;;;20.75;41.39;100210.69;5072811;28;20078;-85
2022/05/30 10:58:42;;;;;;;3.85;1.33;;;;;;;21.29;40.78;100209.84;5072386;28;20046;-84
2022/05/30 11:01:15;;;;;;;3.20;1.35;;;;;;;21.78;40.29;100210.25;5072481;28;20078;-84
2022/05/30 11:03:47;;;;;;;3.95;1.65;;;;;;;21.56;40.84;100209.31;5071102;28;20070;-84
2022/05/30 11:06:26;;;;;;;8.15;1.38;;;;;;;21.39;41.21;100216.59;5072318;28;20111;-84
2022/05/30 11:09:03;;;;;;;5.82;1.55;;;;;;;21.17;40.71;100214.78;5072523;28;20024;-84
2022/05/30 11:11:42;;;;;;;3.65;1.38;;;;;;;21.18;41.22;100216.41;5071289;28;20116;-85
2022/05/30 11:14:20;;;;;;;2.90;1.38;;;;;;;20.54;42.24;100211.28;5072493;28;20106;-85
2022/05/30 11:16:49;;;;;;;4.30;1.75;;;;;;;19.78;43.13;100221.47;5070876;28;20032;-84
2022/05/30 11:19:34;;;;;;;5.20;1.67;;;;;;;20.28;43.44;100214.19;5072439;28;20378;-84
2022/05/30 11:22:09;;;;;;;4.20;1.55;;;;;;;20.08;45.21;100227.09;5072239;28;20028;-84
2022/05/30 11:24:37;;;;;;;3.97;2.15;;;;;;;19.82;46.32;100238.78;5072152;28;20020;-84
2022/05/30 11:27:30;;;;;;;4.90;2.40;;;;;;;19.33;48.63;100241.44;5071926;28;20718;-84
2022/05/30 11:30:10;;;;;;;3.47;2.70;;;;;;;18.05;52.32;100238.81;5070890;28;20099;-84
2022/05/30 11:33:13;;;;;;;3.33;2.20;;;;;;;17.91;52.60;100245.53;5071857;28;20021;-84
2022/05/30 11:36:27;;;;;;;4.78;2.40;;;;;;;18.02;52.54;100245.25;5071763;28;20033;-84
2022/05/30 11:38:58;;;;;;;6.38;2.67;;;;;;;18.47;51.62;100248.66;5055193;28;20107;-84
2022/05/30 11:41:24;;;;;;;3.78;2.28;;;;;;;17.97;53.29;100241.41;5070635;28;20028;-84
2022/05/30 11:44:27;;;;;;;4.25;2.30;;;;;;;18.12;51.95;100239.84;5071881;28;20033;-84
2022/05/30 11:47:05;;;;;;;3.50;1.90;;;;;;;18.04;51.56;100243.28;5071876;28;20029;-84
2022/05/30 11:49:54;;;;;;;3.60;1.30;;;;;;;17.94;51.50;100247.03;5071895;28;20502;-84
2022/05/30 11:53:04;;;;;;;3.03;1.73;;;;;;;17.60;52.45;100255.72;5071470;28;20024;-84